createdAt,value
2018-06-16T00:02:08.093Z,20.80
2018-06-16T00:04:36.711Z,21.43
2018-06-16T00:07:05.593Z,23.30
2018-06-16T00:09:34.392Z,21.00
2018-06-16T00:12:03.147Z,21.80
2018-06-16T00:14:31.780Z,23.07
2018-06-16T00:17:00.527Z,20.83
2018-06-16T00:19:29.247Z,21.63
2018-06-16T00:21:58.181Z,23.07
2018-06-16T00:24:27.276Z,21.30
2018-06-16T00:26:55.992Z,20.90
2018-06-16T00:29:24.606Z,19.07
2018-06-16T00:31:53.154Z,19.43
2018-06-16T00:34:21.681Z,20.30
2018-06-16T00:36:50.614Z,21.00
2018-06-16T00:39:19.370Z,20.43
2018-06-16T00:41:48.090Z,20.80
2018-06-16T00:44:16.847Z,20.90
2018-06-16T00:46:45.768Z,20.43
2018-06-16T00:49:14.616Z,21.67
2018-06-16T00:51:43.196Z,19.87
2018-06-16T00:54:11.707Z,21.23
2018-06-16T00:56:40.306Z,20.03
2018-06-16T00:59:08.993Z,21.27
2018-06-16T01:01:37.965Z,20.17
2018-06-16T01:04:06.670Z,20.17
2018-06-16T01:06:35.258Z,20.30
2018-06-16T01:09:04.760Z,20.30
2018-06-16T01:11:33.463Z,20.50
2018-06-16T01:14:02.731Z,21.43
2018-06-16T01:16:31.504Z,21.93
2018-06-16T01:19:00.587Z,20.10
2018-06-16T01:21:29.291Z,20.90
2018-06-16T01:23:57.832Z,21.87
2018-06-16T01:26:26.507Z,19.53
2018-06-16T01:28:55.107Z,21.50
2018-06-16T01:31:23.664Z,19.03
2018-06-16T01:33:52.338Z,20.50
2018-06-16T01:36:20.959Z,20.50
2018-06-16T01:38:49.602Z,21.83
2018-06-16T01:41:18.392Z,21.23
2018-06-16T01:43:47.079Z,22.07
2018-06-16T01:46:16.072Z,20.07
2018-06-16T01:48:44.860Z,22.77
2018-06-16T01:51:13.853Z,20.10
2018-06-16T01:53:42.395Z,22.00
2018-06-16T01:56:11.187Z,21.17
2018-06-16T01:58:39.807Z,21.63
2018-06-16T02:01:08.693Z,20.80
2018-06-16T02:03:37.691Z,22.43
2018-06-16T02:06:06.375Z,21.07
2018-06-16T02:08:35.061Z,21.57
2018-06-16T02:11:03.748Z,22.33
2018-06-16T02:13:32.334Z,21.70
2018-06-16T02:16:01.103Z,21.97
2018-06-16T02:18:29.940Z,22.07
2018-06-16T02:20:58.542Z,20.50
2018-06-16T02:23:27.199Z,22.07
2018-06-16T02:25:56.000Z,24.00
2018-06-16T02:28:25.059Z,24.77
2018-06-16T02:30:53.873Z,22.13
2018-06-16T02:33:22.534Z,20.60
2018-06-16T02:35:51.219Z,21.17
2018-06-16T02:38:20.008Z,20.97
2018-06-16T02:40:48.876Z,22.20
2018-06-16T02:43:17.551Z,21.43
2018-06-16T02:45:46.168Z,20.47
2018-06-16T02:48:15.058Z,20.80
2018-06-16T02:50:43.743Z,21.13
2018-06-16T02:53:12.924Z,21.50
2018-06-16T02:55:41.473Z,20.80
2018-06-16T02:58:10.312Z,21.90
2018-06-16T03:00:38.999Z,20.27
2018-06-16T03:03:07.639Z,18.60
2018-06-16T03:05:36.370Z,17.67
2018-06-16T03:08:05.040Z,19.63
2018-06-16T03:10:33.672Z,18.10
2018-06-16T03:13:02.324Z,17.97
2018-06-16T03:15:31.012Z,18.90
2018-06-16T03:17:59.697Z,20.07
2018-06-16T03:20:28.319Z,18.83
2018-06-16T03:22:56.867Z,19.80
2018-06-16T03:25:25.534Z,21.10
2018-06-16T03:27:54.181Z,19.47
2018-06-16T03:30:22.950Z,21.80
2018-06-16T03:32:51.552Z,22.47
2018-06-16T03:35:20.179Z,21.63
2018-06-16T03:37:49.029Z,22.17
2018-06-16T03:40:17.640Z,20.60
2018-06-16T03:42:46.531Z,23.27
2018-06-16T03:45:15.335Z,21.63
2018-06-16T03:47:44.243Z,20.20
2018-06-16T03:50:13.023Z,20.70
2018-06-16T03:52:41.655Z,19.83
2018-06-16T03:55:10.372Z,22.57
2018-06-16T03:57:39.182Z,23.47
2018-06-16T04:00:07.764Z,22.47
2018-06-16T04:02:36.451Z,20.60
2018-06-16T04:05:05.138Z,21.73
2018-06-16T04:07:34.324Z,20.40
2018-06-16T04:10:02.954Z,20.97
2018-06-16T04:12:31.551Z,20.37
2018-06-16T04:15:00.320Z,19.97
2018-06-16T04:17:29.204Z,19.07
2018-06-16T04:19:58.172Z,18.50
2018-06-16T04:22:26.916Z,18.20
2018-06-16T04:24:55.482Z,18.97
2018-06-16T04:27:24.233Z,18.90
2018-06-16T04:29:52.871Z,20.43
2018-06-16T04:32:21.914Z,18.97
2018-06-16T04:34:50.764Z,20.23
2018-06-16T04:37:19.443Z,23.40
2018-06-16T04:39:48.404Z,19.57
2018-06-16T04:42:17.313Z,21.67
2018-06-16T04:44:46.392Z,20.57
2018-06-16T04:47:15.065Z,21.20
2018-06-16T04:49:43.652Z,19.70
2018-06-16T04:52:12.420Z,19.27
2018-06-16T04:54:41.044Z,20.67
2018-06-16T04:57:09.729Z,20.57
2018-06-16T04:59:38.476Z,20.73
2018-06-16T05:02:07.536Z,22.50
2018-06-16T05:04:36.169Z,20.60
2018-06-16T05:07:04.751Z,20.30
2018-06-16T05:09:37.212Z,18.30
2018-06-16T05:12:05.903Z,19.70
2018-06-16T05:14:34.624Z,21.17
2018-06-16T05:17:03.442Z,20.20
2018-06-16T05:19:32.096Z,20.50
2018-06-16T05:22:00.851Z,20.20
2018-06-16T05:24:29.487Z,22.83
2018-06-16T05:26:58.160Z,21.77
2018-06-16T05:29:26.780Z,21.60
2018-06-16T05:31:55.429Z,23.37
2018-06-16T05:34:24.160Z,22.30
2018-06-16T05:36:52.728Z,23.50
2018-06-16T05:39:21.532Z,22.97
2018-06-16T05:41:50.229Z,23.27
2018-06-16T05:44:18.927Z,22.70
2018-06-16T05:46:47.928Z,21.23
2018-06-16T05:49:16.594Z,21.07
2018-06-16T05:51:45.283Z,21.60
2018-06-16T05:54:14.070Z,20.80
2018-06-16T05:56:42.676Z,20.13
2018-06-16T05:59:11.536Z,20.40
2018-06-16T06:01:40.171Z,20.20
2018-06-16T06:04:08.743Z,18.97
2018-06-16T06:06:37.415Z,18.37
2018-06-16T06:09:08.099Z,18.60
2018-06-16T06:11:37.231Z,18.90
2018-06-16T06:14:07.524Z,17.63
2018-06-16T06:16:39.659Z,17.90
2018-06-16T06:19:12.371Z,18.30
2018-06-16T06:21:45.252Z,18.80
2018-06-16T06:24:17.491Z,18.20
2018-06-16T06:26:46.529Z,17.50
2018-06-16T06:29:18.026Z,16.80
2018-06-16T06:31:50.353Z,17.10
2018-06-16T06:34:21.290Z,17.60
2018-06-16T06:36:53.207Z,16.20
2018-06-16T06:39:24.369Z,15.30
2018-06-16T06:41:54.975Z,16.10
2018-06-16T06:44:26.456Z,16.80
2018-06-16T06:46:56.832Z,14.37
2018-06-16T06:49:27.649Z,14.33
2018-06-16T06:51:57.874Z,13.63
2018-06-16T06:54:29.363Z,12.70
2018-06-16T06:57:01.382Z,11.23
2018-06-16T06:59:30.037Z,11.70
2018-06-16T07:01:58.645Z,10.27
2018-06-16T07:04:27.428Z,8.53
2018-06-16T07:06:55.980Z,9.83
2018-06-16T07:09:25.030Z,8.40
2018-06-16T07:11:53.736Z,8.63
2018-06-16T07:14:22.352Z,7.50
2018-06-16T07:16:51.179Z,7.57
2018-06-16T07:19:19.878Z,7.00
2018-06-16T07:21:48.564Z,6.73
2018-06-16T07:24:17.184Z,7.77
2018-06-16T07:26:46.030Z,7.70
2018-06-16T07:29:15.263Z,7.37
2018-06-16T07:31:45.098Z,7.03
2018-06-16T07:34:16.468Z,6.53
2018-06-16T07:36:45.380Z,6.90
2018-06-16T07:39:16.199Z,7.27
2018-06-16T07:41:45.709Z,7.33
2018-06-16T07:44:14.363Z,6.83
2018-06-16T07:46:46.712Z,6.93
2018-06-16T07:49:21.406Z,6.83
2018-06-16T07:51:53.679Z,5.20
2018-06-16T07:54:25.400Z,6.43
2018-06-16T07:56:57.330Z,6.27
2018-06-16T07:59:27.013Z,6.00
2018-06-16T08:01:59.400Z,6.10
2018-06-16T08:04:30.219Z,6.50
2018-06-16T08:07:02.276Z,4.90
2018-06-16T08:09:32.268Z,5.50
2018-06-16T08:12:05.809Z,5.37
2018-06-16T08:14:36.976Z,5.37
2018-06-16T08:17:09.449Z,4.90
2018-06-16T08:19:42.163Z,5.40
2018-06-16T08:22:15.912Z,5.00
2018-06-16T08:24:47.186Z,4.70
2018-06-16T08:27:15.915Z,4.30
2018-06-16T08:29:48.203Z,4.70
2018-06-16T08:32:21.078Z,5.23
2018-06-16T08:34:51.423Z,4.93
2018-06-16T08:37:22.292Z,5.50
2018-06-16T08:39:53.769Z,5.30
2018-06-16T08:42:24.161Z,5.50
2018-06-16T08:44:55.264Z,4.53
2018-06-16T08:47:26.070Z,5.00
2018-06-16T08:49:56.630Z,4.80
2018-06-16T08:52:25.314Z,4.07
2018-06-16T08:54:55.304Z,3.20
2018-06-16T08:57:25.346Z,3.60
2018-06-16T08:59:55.878Z,3.40
2018-06-16T09:02:24.460Z,3.90
2018-06-16T09:04:53.063Z,4.60
2018-06-16T09:07:21.775Z,3.37
2018-06-16T09:09:50.512Z,4.00
2018-06-16T09:12:20.559Z,5.00
2018-06-16T09:14:52.859Z,4.90
2018-06-16T09:17:21.559Z,4.60
2018-06-16T09:19:50.131Z,3.93
2018-06-16T09:22:18.919Z,4.10
2018-06-16T09:24:47.624Z,3.57
2018-06-16T09:27:16.714Z,4.20
2018-06-16T09:29:45.415Z,3.60
2018-06-16T09:32:14.145Z,3.77
2018-06-16T09:34:43.107Z,3.73
2018-06-16T09:37:11.921Z,3.17
2018-06-16T09:39:41.095Z,3.73
2018-06-16T09:45:41.828Z,3.97
2018-06-16T09:48:10.655Z,3.40
2018-06-16T09:50:39.411Z,3.23
2018-06-16T09:53:08.115Z,4.07
2018-06-16T09:55:36.690Z,4.50
2018-06-16T09:58:06.204Z,3.40
2018-06-16T10:00:41.305Z,3.97
2018-06-16T10:03:11.110Z,3.50
2018-06-16T10:05:40.255Z,4.27
2018-06-16T10:08:09.000Z,4.47
2018-06-16T10:10:37.857Z,3.53
2018-06-16T10:13:06.710Z,3.47
2018-06-16T10:15:35.423Z,4.20
2018-06-16T10:18:04.002Z,3.90
2018-06-16T10:20:32.807Z,3.60
2018-06-16T10:23:01.534Z,3.57
2018-06-16T10:25:30.146Z,4.27
2018-06-16T10:27:59.311Z,3.90
2018-06-16T10:30:28.183Z,3.60
2018-06-16T10:32:56.996Z,3.40
2018-06-16T10:35:25.695Z,3.63
2018-06-16T10:37:54.443Z,3.90
2018-06-16T10:40:23.275Z,3.20
2018-06-16T10:42:52.000Z,4.00
2018-06-16T10:45:21.081Z,4.20
2018-06-16T10:47:49.972Z,4.23
2018-06-16T10:50:18.743Z,4.90
2018-06-16T10:52:47.617Z,4.30
2018-06-16T10:55:16.319Z,3.73
2018-06-16T10:57:45.422Z,3.60
2018-06-16T11:00:14.540Z,3.50
2018-06-16T11:02:43.408Z,4.00
2018-06-16T11:05:12.644Z,3.87
2018-06-16T11:07:41.859Z,3.97
2018-06-16T11:10:10.468Z,3.70
2018-06-16T11:12:39.219Z,3.00
2018-06-16T11:15:07.959Z,3.30
2018-06-16T11:17:36.858Z,3.80
2018-06-16T11:20:05.892Z,3.33
2018-06-16T11:22:34.730Z,3.53
2018-06-16T11:25:03.828Z,3.27
2018-06-16T11:27:32.456Z,2.83
2018-06-16T11:30:01.710Z,3.13
2018-06-16T11:32:30.575Z,3.07
2018-06-16T11:34:59.390Z,3.27
2018-06-16T11:37:28.032Z,3.30
2018-06-16T11:39:56.664Z,2.65
2018-06-16T11:42:25.411Z,2.77
2018-06-16T11:44:54.040Z,2.20
2018-06-16T11:47:22.571Z,2.05
2018-06-16T11:49:51.195Z,2.70
2018-06-16T11:52:20.045Z,2.65
2018-06-16T11:54:48.752Z,2.80
2018-06-16T11:57:17.908Z,2.72
2018-06-16T11:59:46.676Z,2.80
2018-06-16T12:02:15.460Z,2.40
2018-06-16T12:04:44.437Z,3.20
2018-06-16T12:07:13.404Z,2.87
2018-06-16T12:09:42.160Z,2.43
2018-06-16T12:12:11.120Z,2.77
2018-06-16T12:14:39.992Z,2.60
2018-06-16T12:17:09.013Z,2.30
2018-06-16T12:19:37.837Z,2.10
2018-06-16T12:22:06.525Z,2.70
2018-06-16T12:24:35.277Z,2.60
2018-06-16T12:27:03.945Z,3.60
2018-06-16T12:29:32.668Z,2.73
2018-06-16T12:32:01.502Z,2.60
2018-06-16T12:34:30.166Z,3.27
2018-06-16T12:36:58.888Z,2.50
2018-06-16T12:39:27.604Z,2.67
2018-06-16T12:41:56.316Z,2.70
2018-06-16T12:44:25.152Z,2.40
2018-06-16T12:46:53.896Z,2.30
2018-06-16T12:49:26.518Z,2.77
2018-06-16T12:51:55.088Z,3.00
2018-06-16T12:54:23.732Z,2.57
2018-06-16T12:56:52.373Z,2.50
2018-06-16T12:59:21.361Z,2.70
2018-06-16T13:01:50.100Z,2.53
2018-06-16T13:04:19.041Z,2.47
2018-06-16T13:06:48.166Z,2.37
2018-06-16T13:09:16.854Z,2.53
2018-06-16T13:11:45.582Z,2.23
2018-06-16T13:14:14.379Z,2.47
2018-06-16T13:16:46.704Z,2.47
2018-06-16T13:19:15.847Z,2.40
2018-06-16T13:21:44.605Z,2.30
2018-06-16T13:24:20.359Z,2.50
2018-06-16T13:26:48.932Z,2.60
2018-06-16T13:29:17.833Z,2.50
2018-06-16T13:31:47.171Z,2.60
2018-06-16T13:34:15.855Z,2.40
2018-06-16T13:36:44.794Z,2.80
2018-06-16T13:39:13.506Z,2.70
2018-06-16T13:41:42.807Z,2.60
2018-06-16T13:44:12.726Z,3.20
2018-06-16T13:46:41.399Z,3.23
2018-06-16T13:49:10.259Z,3.10
2018-06-16T13:51:38.918Z,2.63
2018-06-16T13:54:08.293Z,3.23
2018-06-16T13:56:37.388Z,3.20
2018-06-16T13:59:06.065Z,2.90
2018-06-16T14:01:35.116Z,3.23
2018-06-16T14:04:03.740Z,2.93
2018-06-16T14:06:32.406Z,3.07
2018-06-16T14:09:01.172Z,3.27
2018-06-16T14:11:30.044Z,3.50
2018-06-16T14:13:58.780Z,3.07
2018-06-16T14:16:27.913Z,3.17
2018-06-16T14:18:56.498Z,3.87
2018-06-16T14:21:25.160Z,3.47
2018-06-16T14:23:57.982Z,2.83
2018-06-16T14:26:30.684Z,3.63
2018-06-16T14:28:59.427Z,2.60
2018-06-16T14:31:28.137Z,3.20
2018-06-16T14:33:57.124Z,3.67
2018-06-16T14:36:27.441Z,3.70
2018-06-16T14:38:56.762Z,3.50
2018-06-16T14:41:25.868Z,3.50
2018-06-16T14:43:55.408Z,3.60
2018-06-16T14:46:24.176Z,3.63
2018-06-16T14:48:52.932Z,3.73
2018-06-16T14:51:21.556Z,3.63
2018-06-16T14:53:50.218Z,4.07
2018-06-16T14:56:18.819Z,3.73
2018-06-16T14:58:47.448Z,3.73
2018-06-16T15:01:16.047Z,3.80
2018-06-16T15:03:44.810Z,3.70
2018-06-16T15:06:13.420Z,3.73
2018-06-16T15:08:42.350Z,3.47
2018-06-16T15:11:10.976Z,3.97
2018-06-16T15:13:39.647Z,3.67
2018-06-16T15:16:09.135Z,4.10
2018-06-16T15:18:39.671Z,3.10
2018-06-16T15:21:08.620Z,3.47
2018-06-16T15:23:37.291Z,4.10
2018-06-16T15:26:06.080Z,4.57
2018-06-16T15:28:34.692Z,4.53
2018-06-16T15:31:03.249Z,3.97
2018-06-16T15:33:31.932Z,3.83
2018-06-16T15:36:00.797Z,3.87
2018-06-16T15:38:29.395Z,4.23
2018-06-16T15:40:58.320Z,4.10
2018-06-16T15:43:26.933Z,4.30
2018-06-16T15:45:55.953Z,4.07
2018-06-16T15:48:24.612Z,3.83
2018-06-16T15:50:53.244Z,5.10
2018-06-16T15:53:22.003Z,3.83
2018-06-16T15:55:51.359Z,4.73
2018-06-16T15:58:20.624Z,4.20
2018-06-16T16:00:49.801Z,4.47
2018-06-16T16:03:18.968Z,3.73
2018-06-16T16:05:48.216Z,3.87
2018-06-16T16:08:16.879Z,4.30
2018-06-16T16:10:45.804Z,3.40
2018-06-16T16:13:14.827Z,4.17
2018-06-16T16:15:44.201Z,4.10
2018-06-16T16:18:12.831Z,4.33
2018-06-16T16:20:41.472Z,5.00
2018-06-16T16:23:10.684Z,5.00
2018-06-16T16:25:40.000Z,4.33
2018-06-16T16:28:08.892Z,4.57
2018-06-16T16:30:37.524Z,3.77
2018-06-16T16:33:06.355Z,4.50
2018-06-16T16:35:35.100Z,4.47
2018-06-16T16:38:04.029Z,4.13
2018-06-16T16:40:32.912Z,4.30
2018-06-16T16:43:01.632Z,4.27
2018-06-16T16:45:30.421Z,4.80
2018-06-16T16:47:59.360Z,3.90
2018-06-16T16:50:28.525Z,3.87
2018-06-16T16:52:57.143Z,4.73
2018-06-16T16:55:25.842Z,4.30
2018-06-16T16:57:54.456Z,4.63
2018-06-16T17:00:23.275Z,5.53
2018-06-16T17:02:52.199Z,5.23
2018-06-16T17:05:21.280Z,4.57
2018-06-16T17:07:50.276Z,4.10
2018-06-16T17:10:18.881Z,4.70
2018-06-16T17:12:48.196Z,4.73
2018-06-16T17:15:17.112Z,5.00
2018-06-16T17:17:53.312Z,5.07
2018-06-16T17:20:22.112Z,5.10
2018-06-16T17:22:50.727Z,4.67
2018-06-16T17:25:19.760Z,6.10
2018-06-16T17:27:48.300Z,5.23
2018-06-16T17:30:17.451Z,5.20
2018-06-16T17:32:46.047Z,5.93
2018-06-16T17:35:15.638Z,4.40
2018-06-16T17:37:44.240Z,6.10
2018-06-16T17:40:12.929Z,8.90
2018-06-16T17:42:41.593Z,19.67
2018-06-16T17:45:10.147Z,17.57
2018-06-16T17:47:38.880Z,11.97
2018-06-16T17:50:07.531Z,8.97
2018-06-16T17:52:36.195Z,7.40
2018-06-16T17:55:05.084Z,5.93
2018-06-16T17:57:34.543Z,5.40
2018-06-16T18:00:03.204Z,4.87
2018-06-16T18:02:31.855Z,5.57
2018-06-16T18:05:00.498Z,5.83
2018-06-16T18:07:29.376Z,5.40
2018-06-16T18:09:57.909Z,5.73
2018-06-16T18:12:26.505Z,4.60
2018-06-16T18:14:55.072Z,5.57
2018-06-16T18:17:23.832Z,6.53
2018-06-16T18:19:52.694Z,7.10
2018-06-16T18:22:21.337Z,7.03
2018-06-16T18:24:50.155Z,7.30
2018-06-16T18:27:18.855Z,6.30
2018-06-16T18:29:50.088Z,5.10
2018-06-16T18:32:19.095Z,4.93
2018-06-16T18:34:47.731Z,5.70
2018-06-16T18:37:16.327Z,5.57
2018-06-16T18:39:45.127Z,5.60
2018-06-16T18:42:13.664Z,5.30
2018-06-16T18:44:42.237Z,5.30
2018-06-16T18:47:11.184Z,6.33
2018-06-16T18:49:39.733Z,5.33
2018-06-16T18:52:08.395Z,5.40
2018-06-16T18:54:37.184Z,5.40
2018-06-16T18:57:06.184Z,4.80
2018-06-16T18:59:34.831Z,6.23
2018-06-16T19:02:03.559Z,6.80
2018-06-16T19:04:32.104Z,5.83
2018-06-16T19:07:00.640Z,5.20
2018-06-16T19:09:29.352Z,5.07
2018-06-16T19:11:57.980Z,5.60
2018-06-16T19:14:26.711Z,5.33
2018-06-16T19:16:55.487Z,5.33
2018-06-16T19:19:24.766Z,4.67
2018-06-16T19:21:53.631Z,5.73
2018-06-16T19:24:22.291Z,6.10
2018-06-16T19:26:50.859Z,5.17
2018-06-16T19:29:19.443Z,5.87
2018-06-16T19:31:48.019Z,5.33
2018-06-16T19:34:16.868Z,5.10
2018-06-16T19:36:45.623Z,5.23
2018-06-16T19:39:14.188Z,5.70
2018-06-16T19:41:42.780Z,5.77
2018-06-16T19:44:11.456Z,5.73
2018-06-16T19:46:40.136Z,4.80
2018-06-16T19:49:09.064Z,6.60
2018-06-16T19:51:37.802Z,6.90
2018-06-16T19:54:06.724Z,7.73
2018-06-16T19:56:35.396Z,7.40
2018-06-16T19:59:03.999Z,8.30
2018-06-16T20:01:32.519Z,7.73
2018-06-16T20:04:01.312Z,8.17
2018-06-16T20:06:29.979Z,8.30
2018-06-16T20:08:58.900Z,7.37
2018-06-16T20:11:27.655Z,7.10
2018-06-16T20:13:56.208Z,8.37
2018-06-16T20:16:24.791Z,6.10
2018-06-16T20:18:54.718Z,6.80
2018-06-16T20:21:23.789Z,6.43
2018-06-16T20:23:52.840Z,7.10
2018-06-16T20:26:30.952Z,6.53
2018-06-16T20:29:03.856Z,6.90
2018-06-16T20:31:32.571Z,8.23
2018-06-16T20:34:01.346Z,7.77
2018-06-16T20:36:29.964Z,6.97
2018-06-16T20:38:58.632Z,8.23
2018-06-16T20:41:27.946Z,6.87
2018-06-16T20:43:56.879Z,7.50
2018-06-16T20:46:26.251Z,7.43
2018-06-16T20:48:55.284Z,8.50
2018-06-16T20:51:24.262Z,9.23
2018-06-16T20:53:53.095Z,8.53
2018-06-16T20:56:22.287Z,8.90
2018-06-16T20:58:51.618Z,8.30
2018-06-16T21:01:20.710Z,9.03
2018-06-16T21:03:49.797Z,9.40
2018-06-16T21:06:19.191Z,8.93
2018-06-16T21:08:47.871Z,9.33
2018-06-16T21:11:16.561Z,9.80
2018-06-16T21:13:45.527Z,9.53
2018-06-16T21:16:14.232Z,9.63
2018-06-16T21:18:43.154Z,10.53
2018-06-16T21:21:11.872Z,10.47
2018-06-16T21:23:40.647Z,10.80
2018-06-16T21:26:09.299Z,9.80
2018-06-16T21:28:37.864Z,8.70
2018-06-16T21:31:06.540Z,9.10
2018-06-16T21:33:35.420Z,11.43
2018-06-16T21:36:04.088Z,11.13
2018-06-16T21:38:31.597Z,12.10
2018-06-16T21:41:00.141Z,10.70
2018-06-16T21:43:28.827Z,10.17
2018-06-16T21:45:57.445Z,10.67
2018-06-16T21:48:26.104Z,9.73
2018-06-16T21:50:54.868Z,9.97
2018-06-16T21:53:23.575Z,10.90
2018-06-16T21:55:52.428Z,9.47
2018-06-16T21:58:21.167Z,9.47
2018-06-16T22:00:49.777Z,9.50
2018-06-16T22:03:18.905Z,9.77
2018-06-16T22:05:47.541Z,9.47
2018-06-16T22:08:25.478Z,10.67
2018-06-16T22:10:54.393Z,10.63
2018-06-16T22:13:23.025Z,11.50
2018-06-16T22:15:51.944Z,11.20
2018-06-16T22:18:20.539Z,11.57
2018-06-16T22:20:49.208Z,13.73
2018-06-16T22:23:17.785Z,12.50
2018-06-16T22:25:46.626Z,12.50
2018-06-16T22:28:15.251Z,13.20
2018-06-16T22:30:43.871Z,12.50
2018-06-16T22:33:12.752Z,12.00
2018-06-16T22:35:41.453Z,12.43
2018-06-16T22:38:10.034Z,12.00
2018-06-16T22:40:38.755Z,10.50
2018-06-16T22:43:07.344Z,11.90
2018-06-16T22:45:36.440Z,13.00
2018-06-16T22:48:05.141Z,12.03
2018-06-16T22:50:33.840Z,11.57
2018-06-16T22:53:02.413Z,11.73
2018-06-16T22:55:31.054Z,11.20
2018-06-16T22:57:59.748Z,12.30
2018-06-16T23:00:29.188Z,11.30
2018-06-16T23:02:58.932Z,11.27
2018-06-16T23:05:27.612Z,11.40
2018-06-16T23:07:56.251Z,13.63
2018-06-16T23:10:25.497Z,12.03
2018-06-16T23:12:54.163Z,11.17
2018-06-16T23:15:22.896Z,11.47
2018-06-16T23:17:51.623Z,11.23
2018-06-16T23:20:20.187Z,11.00
2018-06-16T23:22:49.182Z,11.17
2018-06-16T23:25:17.876Z,8.90
2018-06-16T23:27:46.547Z,7.70
2018-06-16T23:30:15.324Z,7.33
2018-06-16T23:32:44.129Z,7.57
2018-06-16T23:35:12.716Z,6.77
2018-06-16T23:37:41.387Z,7.17
2018-06-16T23:40:09.985Z,7.53
2018-06-16T23:42:38.536Z,7.87
2018-06-16T23:45:07.400Z,7.90
2018-06-16T23:47:36.051Z,7.07
2018-06-16T23:50:04.820Z,7.50
2018-06-16T23:52:33.568Z,8.63
2018-06-16T23:55:02.228Z,8.20
2018-06-16T23:57:31.007Z,9.30
2018-06-16T23:59:59.828Z,8.30
